createdAt,value
2023-03-02T00:02:00.182Z,61.70
2023-03-02T00:04:58.743Z,62.01
2023-03-02T00:07:32.768Z,61.92
2023-03-02T00:10:03.520Z,62.33
2023-03-02T00:12:33.364Z,62.27
2023-03-02T00:15:01.676Z,62.00
2023-03-02T00:17:29.694Z,62.21
2023-03-02T00:20:11.807Z,62.22
2023-03-02T00:22:45.081Z,62.03
2023-03-02T00:25:15.418Z,62.23
2023-03-02T00:27:43.891Z,62.40
2023-03-02T00:30:16.590Z,62.23
2023-03-02T00:32:45.862Z,62.38
2023-03-02T00:35:13.776Z,62.24
2023-03-02T00:37:43.447Z,62.35
2023-03-02T00:40:11.873Z,62.21
2023-03-02T00:42:40.121Z,62.40
2023-03-02T00:45:08.556Z,62.29
2023-03-02T00:47:37.467Z,62.46
2023-03-02T00:50:07.003Z,62.47
2023-03-02T00:52:35.597Z,62.38
2023-03-02T00:55:03.764Z,62.59
2023-03-02T00:57:31.622Z,62.57
2023-03-02T01:00:02.019Z,62.58
2023-03-02T01:02:30.068Z,62.50
2023-03-02T01:04:57.940Z,62.51
2023-03-02T01:07:28.333Z,62.64
2023-03-02T01:09:58.946Z,62.73
2023-03-02T01:12:26.905Z,62.54
2023-03-02T01:15:00.988Z,62.75
2023-03-02T01:17:28.986Z,62.60
2023-03-02T01:19:57.257Z,62.60
2023-03-02T01:22:25.300Z,62.76
2023-03-02T01:24:53.480Z,62.80
2023-03-02T01:27:22.231Z,62.90
2023-03-02T01:29:50.818Z,62.72
2023-03-02T01:32:18.655Z,62.74
2023-03-02T01:34:46.865Z,62.79
2023-03-02T01:37:14.709Z,62.93
2023-03-02T01:39:42.448Z,62.92
2023-03-02T01:42:10.311Z,62.82
2023-03-02T01:44:40.252Z,62.74
2023-03-02T01:47:25.636Z,62.91
2023-03-02T01:50:26.974Z,63.01
2023-03-02T01:52:55.446Z,62.75
2023-03-02T01:55:28.125Z,63.13
2023-03-02T01:57:58.835Z,62.92
2023-03-02T02:00:30.034Z,62.71
2023-03-02T02:03:24.460Z,62.84
2023-03-02T02:06:10.574Z,63.08
2023-03-02T02:08:39.625Z,62.94
2023-03-02T02:11:07.894Z,62.95
2023-03-02T02:13:36.004Z,63.04
2023-03-02T02:16:04.426Z,63.10
2023-03-02T02:18:33.935Z,63.24
2023-03-02T02:21:02.156Z,63.11
2023-03-02T02:23:55.121Z,63.12
2023-03-02T02:26:29.052Z,63.40
2023-03-02T02:29:08.078Z,63.21
2023-03-02T02:32:00.749Z,63.28
2023-03-02T02:34:36.007Z,63.37
2023-03-02T02:37:20.352Z,63.26
2023-03-02T02:40:13.961Z,63.40
2023-03-02T02:42:46.071Z,63.57
2023-03-02T02:45:23.027Z,63.18
2023-03-02T02:47:52.526Z,63.24
2023-03-02T02:50:29.383Z,63.69
2023-03-02T02:53:27.272Z,63.58
2023-03-02T02:55:58.295Z,63.55
2023-03-02T02:58:56.611Z,63.62
2023-03-02T03:01:26.398Z,63.48
2023-03-02T03:04:02.032Z,63.59
2023-03-02T03:06:41.454Z,63.40
2023-03-02T03:09:13.587Z,63.56
2023-03-02T03:11:45.347Z,63.67
2023-03-02T03:14:39.258Z,63.67
2023-03-02T03:17:12.173Z,63.76
2023-03-02T03:19:47.815Z,63.68
2023-03-02T03:22:16.721Z,63.83
2023-03-02T03:24:48.839Z,63.92
2023-03-02T03:27:17.008Z,63.71
2023-03-02T03:29:50.504Z,63.89
2023-03-02T03:32:19.254Z,63.77
2023-03-02T03:34:47.268Z,63.71
2023-03-02T03:37:17.553Z,63.69
2023-03-02T03:39:45.738Z,63.69
2023-03-02T03:42:13.636Z,63.79
2023-03-02T03:44:42.273Z,64.14
2023-03-02T03:47:10.186Z,63.77
2023-03-02T03:49:38.233Z,63.83
2023-03-02T03:52:06.371Z,63.72
2023-03-02T03:54:34.437Z,63.86
2023-03-02T03:57:03.150Z,63.99
2023-03-02T03:59:30.926Z,63.89
2023-03-02T04:02:00.806Z,63.83
2023-03-02T04:04:32.503Z,63.95
2023-03-02T04:07:00.526Z,64.02
2023-03-02T04:09:29.203Z,64.01
2023-03-02T04:11:57.891Z,63.91
2023-03-02T04:14:25.814Z,63.91
2023-03-02T04:16:54.006Z,64.16
2023-03-02T04:19:25.385Z,64.06
2023-03-02T04:21:55.060Z,64.08
2023-03-02T04:24:24.196Z,64.10
2023-03-02T04:26:52.108Z,64.05
2023-03-02T04:29:20.340Z,63.97
2023-03-02T04:31:48.602Z,64.29
2023-03-02T04:34:16.758Z,64.25
2023-03-02T04:36:45.140Z,64.10
2023-03-02T04:39:15.700Z,64.00
2023-03-02T04:41:43.876Z,64.20
2023-03-02T04:44:13.362Z,64.41
2023-03-02T04:46:45.013Z,64.28
2023-03-02T04:49:18.306Z,64.23
2023-03-02T04:51:52.578Z,64.35
2023-03-02T04:54:26.474Z,64.32
2023-03-02T04:56:55.200Z,64.38
2023-03-02T04:59:28.388Z,64.33
2023-03-02T05:01:59.814Z,64.41
2023-03-02T05:04:28.486Z,64.40
2023-03-02T05:06:57.815Z,64.63
2023-03-02T05:09:30.988Z,64.46
2023-03-02T05:12:01.140Z,64.40
2023-03-02T05:14:33.101Z,64.30
2023-03-02T05:17:01.213Z,64.25
2023-03-02T05:19:29.210Z,64.40
2023-03-02T05:21:57.482Z,64.44
2023-03-02T05:24:25.536Z,64.53
2023-03-02T05:26:53.880Z,64.43
2023-03-02T05:29:22.202Z,64.35
2023-03-02T05:32:12.786Z,64.70
2023-03-02T05:34:41.128Z,64.63
2023-03-02T05:37:09.535Z,64.50
2023-03-02T05:39:37.865Z,64.69
2023-03-02T05:42:06.284Z,64.74
2023-03-02T05:44:34.210Z,64.82
2023-03-02T05:47:02.022Z,64.62
2023-03-02T05:49:30.293Z,64.72
2023-03-02T05:51:58.996Z,64.88
2023-03-02T05:54:26.760Z,64.58
2023-03-02T05:56:54.494Z,64.75
2023-03-02T05:59:22.353Z,65.06
2023-03-02T06:01:50.461Z,64.80
2023-03-02T06:04:18.912Z,65.18
2023-03-02T06:06:47.630Z,65.11
2023-03-02T06:09:22.860Z,65.09
2023-03-02T06:11:50.902Z,65.02
2023-03-02T06:14:18.655Z,65.34
2023-03-02T06:16:49.655Z,65.12
2023-03-02T06:19:17.996Z,65.40
2023-03-02T06:21:46.123Z,65.11
2023-03-02T06:24:13.948Z,64.93
2023-03-02T06:26:43.749Z,65.38
2023-03-02T06:29:13.226Z,65.29
2023-03-02T06:31:41.835Z,65.28
2023-03-02T06:34:12.986Z,65.45
2023-03-02T06:36:40.868Z,65.65
2023-03-02T06:39:15.880Z,65.66
2023-03-02T06:41:48.663Z,65.78
2023-03-02T06:44:17.985Z,65.85
2023-03-02T06:46:46.812Z,66.04
2023-03-02T06:49:14.647Z,65.72
2023-03-02T06:51:42.537Z,65.71
2023-03-02T06:54:10.884Z,66.06
2023-03-02T06:56:40.738Z,65.84
2023-03-02T06:59:08.923Z,66.09
2023-03-02T07:01:37.492Z,65.94
2023-03-02T07:04:07.577Z,66.24
2023-03-02T07:06:36.249Z,65.99
2023-03-02T07:09:04.603Z,66.17
2023-03-02T07:11:32.759Z,65.99
2023-03-02T07:14:01.764Z,66.12
2023-03-02T07:16:31.240Z,66.09
2023-03-02T07:18:59.938Z,66.37
2023-03-02T07:21:27.774Z,66.20
2023-03-02T07:23:55.786Z,66.38
2023-03-02T07:26:26.546Z,66.35
2023-03-02T07:28:54.925Z,66.38
2023-03-02T07:31:23.217Z,66.31
2023-03-02T07:33:51.224Z,66.49
2023-03-02T07:36:19.108Z,66.46
2023-03-02T07:38:47.002Z,66.56
2023-03-02T07:41:16.932Z,66.44
2023-03-02T07:43:45.270Z,66.46
2023-03-02T07:46:13.692Z,66.43
2023-03-02T07:48:41.449Z,66.55
2023-03-02T07:51:09.301Z,66.48
2023-03-02T07:53:37.243Z,66.47
2023-03-02T07:56:12.527Z,66.48
2023-03-02T07:58:41.442Z,66.38
2023-03-02T08:01:09.346Z,66.55
2023-03-02T08:03:37.149Z,66.43
2023-03-02T08:06:11.255Z,66.33
2023-03-02T08:08:39.058Z,66.50
2023-03-02T08:11:12.500Z,66.38
2023-03-02T08:13:41.052Z,66.38
2023-03-02T08:16:10.899Z,66.52
2023-03-02T08:18:39.800Z,66.38
2023-03-02T08:21:20.434Z,66.39
2023-03-02T08:23:49.148Z,66.44
2023-03-02T08:26:19.118Z,66.43
2023-03-02T08:28:47.886Z,66.48
2023-03-02T08:31:16.325Z,66.37
2023-03-02T08:33:46.061Z,66.51
2023-03-02T08:36:16.790Z,66.65
2023-03-02T08:38:45.214Z,66.49
2023-03-02T08:41:16.984Z,66.50
2023-03-02T08:43:45.836Z,66.44
2023-03-02T08:46:18.191Z,66.60
2023-03-02T08:48:46.785Z,66.59
2023-03-02T08:51:24.194Z,66.33
2023-03-02T08:53:57.135Z,66.45
2023-03-02T08:56:33.855Z,66.39
2023-03-02T08:59:11.099Z,66.54
2023-03-02T09:01:40.478Z,66.51
2023-03-02T09:04:10.373Z,66.50
2023-03-02T09:06:41.364Z,66.40
2023-03-02T09:09:11.454Z,66.44
2023-03-02T09:11:39.762Z,66.55
2023-03-02T09:14:07.656Z,66.55
2023-03-02T09:16:35.462Z,66.51
2023-03-02T09:19:04.166Z,66.27
2023-03-02T09:21:32.344Z,66.30
2023-03-02T09:24:00.621Z,66.16
2023-03-02T09:26:28.415Z,66.50
2023-03-02T09:28:56.765Z,66.44
2023-03-02T09:31:24.890Z,66.69
2023-03-02T09:34:05.585Z,66.51
2023-03-02T09:36:36.649Z,66.50
2023-03-02T09:39:09.533Z,66.47
2023-03-02T09:42:43.478Z,66.26
2023-03-02T09:45:37.422Z,66.67
2023-03-02T09:48:16.446Z,66.63
2023-03-02T09:51:16.801Z,66.42
2023-03-02T09:54:29.452Z,65.92
2023-03-02T09:56:59.520Z,66.10
2023-03-02T09:59:40.065Z,66.14
2023-03-02T10:02:37.787Z,66.21
2023-03-02T10:05:14.240Z,66.16
2023-03-02T10:07:51.948Z,65.61
2023-03-02T10:10:44.073Z,65.98
2023-03-02T10:13:44.987Z,65.79
2023-03-02T10:16:30.957Z,65.73
2023-03-02T10:19:26.254Z,65.52
2023-03-02T10:22:03.431Z,65.96
2023-03-02T10:24:40.146Z,65.41
2023-03-02T10:27:22.557Z,65.03
2023-03-02T10:30:06.561Z,65.52
2023-03-02T10:32:41.839Z,64.82
2023-03-02T10:35:21.090Z,65.15
2023-03-02T10:37:52.143Z,65.39
2023-03-02T10:41:10.142Z,65.26
2023-03-02T10:43:46.549Z,65.41
2023-03-02T10:46:17.771Z,65.35
2023-03-02T10:48:58.730Z,65.47
2023-03-02T10:51:34.598Z,65.14
2023-03-02T10:54:10.942Z,65.42
2023-03-02T10:56:43.091Z,65.21
2023-03-02T10:59:28.776Z,65.24
2023-03-02T11:02:13.536Z,65.41
2023-03-02T11:04:42.066Z,65.19
2023-03-02T11:07:40.348Z,65.25
2023-03-02T11:10:19.706Z,65.39
2023-03-02T11:12:51.804Z,65.41
2023-03-02T11:15:35.740Z,64.99
2023-03-02T11:18:03.508Z,65.28
2023-03-02T11:20:36.205Z,65.15
2023-03-02T11:23:33.033Z,65.26
2023-03-02T11:26:21.877Z,64.98
2023-03-02T11:29:00.054Z,65.15
2023-03-02T11:31:41.778Z,64.80
2023-03-02T11:34:28.232Z,64.59
2023-03-02T11:37:20.098Z,64.58
2023-03-02T11:39:55.139Z,64.72
2023-03-02T11:42:45.585Z,64.83
2023-03-02T11:45:14.006Z,64.60
2023-03-02T11:47:57.466Z,64.17
2023-03-02T11:50:38.978Z,64.04
2023-03-02T11:53:13.916Z,64.21
2023-03-02T11:55:48.816Z,64.40
2023-03-02T11:58:21.583Z,64.73
2023-03-02T12:00:51.051Z,64.55
2023-03-02T12:03:38.936Z,64.26
2023-03-02T12:06:26.450Z,64.73
2023-03-02T12:09:08.855Z,64.43
2023-03-02T12:11:41.672Z,64.40
2023-03-02T12:14:39.252Z,64.40
2023-03-02T12:17:30.837Z,64.31
2023-03-02T12:20:23.454Z,63.92
2023-03-02T12:22:51.432Z,63.24
2023-03-02T12:25:19.131Z,63.11
2023-03-02T12:27:49.738Z,63.39
2023-03-02T12:30:24.705Z,63.64
2023-03-02T12:33:10.860Z,63.83
2023-03-02T12:35:39.112Z,63.82
2023-03-02T12:38:29.640Z,63.96
2023-03-02T12:41:35.824Z,63.85
2023-03-02T12:44:09.689Z,64.00
2023-03-02T12:46:40.140Z,63.53
2023-03-02T12:49:17.317Z,63.26
2023-03-02T12:52:01.339Z,63.55
2023-03-02T12:54:34.657Z,63.45
2023-03-02T12:57:18.033Z,63.60
2023-03-02T12:59:54.664Z,63.44
2023-03-02T13:02:25.760Z,63.15
2023-03-02T13:05:00.258Z,63.29
2023-03-02T13:07:46.436Z,62.37
2023-03-02T13:10:36.240Z,63.20
2023-03-02T13:13:16.911Z,62.83
2023-03-02T13:15:57.323Z,62.98
2023-03-02T13:18:31.923Z,62.31
2023-03-02T13:21:02.554Z,62.95
2023-03-02T13:23:35.728Z,62.91
2023-03-02T13:26:05.748Z,62.81
2023-03-02T13:28:38.435Z,62.82
2023-03-02T13:31:25.087Z,62.69
2023-03-02T13:33:55.898Z,62.59
2023-03-02T13:36:27.203Z,62.07
2023-03-02T13:38:59.344Z,62.41
2023-03-02T13:41:33.104Z,61.76
2023-03-02T13:44:19.957Z,62.15
2023-03-02T13:46:47.937Z,62.15
2023-03-02T13:49:33.104Z,61.86
2023-03-02T13:52:18.285Z,61.57
2023-03-02T13:54:47.303Z,61.83
2023-03-02T13:57:20.430Z,61.91
2023-03-02T13:59:48.889Z,61.79
2023-03-02T14:02:25.872Z,60.75
2023-03-02T14:04:54.565Z,60.58
2023-03-02T14:07:22.736Z,60.80
2023-03-02T14:09:50.613Z,61.02
2023-03-02T14:12:30.600Z,60.59
2023-03-02T14:15:01.993Z,60.87
2023-03-02T14:17:30.200Z,61.24
2023-03-02T14:19:58.214Z,60.85
2023-03-02T14:22:29.677Z,61.03
2023-03-02T14:24:57.585Z,61.05
2023-03-02T14:27:29.534Z,61.12
2023-03-02T14:29:58.508Z,61.09
2023-03-02T14:32:26.447Z,60.57
2023-03-02T14:34:57.551Z,61.05
2023-03-02T14:37:28.522Z,61.13
2023-03-02T14:39:57.444Z,61.26
2023-03-02T14:42:25.214Z,61.04
2023-03-02T14:44:53.536Z,61.04
2023-03-02T14:47:22.046Z,60.97
2023-03-02T14:49:49.925Z,61.01
2023-03-02T14:52:30.828Z,61.05
2023-03-02T14:55:26.121Z,61.08
2023-03-02T14:57:58.861Z,61.13
2023-03-02T15:00:26.825Z,61.21
2023-03-02T15:02:59.100Z,61.09
2023-03-02T15:05:30.632Z,61.06
2023-03-02T15:07:59.487Z,61.18
2023-03-02T15:10:30.475Z,61.26
2023-03-02T15:13:01.354Z,61.24
2023-03-02T15:15:29.842Z,61.20
2023-03-02T15:17:57.714Z,61.06
2023-03-02T15:20:25.903Z,60.98
2023-03-02T15:22:56.549Z,61.05
2023-03-02T15:25:30.662Z,61.09
2023-03-02T15:27:59.982Z,61.01
2023-03-02T15:30:31.248Z,60.96
2023-03-02T15:33:01.102Z,60.87
2023-03-02T15:35:41.359Z,60.90
2023-03-02T15:38:20.257Z,60.89
2023-03-02T15:40:51.630Z,60.84
2023-03-02T15:43:24.221Z,60.84
2023-03-02T15:45:54.242Z,60.89
2023-03-02T15:48:24.151Z,60.80
2023-03-02T15:50:59.964Z,60.81
2023-03-02T15:53:36.109Z,60.81
2023-03-02T15:56:09.670Z,60.75
2023-03-02T15:58:37.407Z,60.83
2023-03-02T16:01:14.819Z,60.95
2023-03-02T16:03:46.273Z,60.90
2023-03-02T16:06:18.323Z,60.91
2023-03-02T16:08:46.134Z,60.95
2023-03-02T16:11:18.679Z,60.93
2023-03-02T16:13:49.196Z,60.67
2023-03-02T16:16:20.553Z,60.89
2023-03-02T16:19:03.697Z,60.60
2023-03-02T16:21:34.148Z,60.87
2023-03-02T16:24:08.503Z,60.58
2023-03-02T16:26:39.140Z,60.49
2023-03-02T16:29:09.867Z,60.78
2023-03-02T16:31:39.300Z,60.65
2023-03-02T16:34:11.580Z,60.88
2023-03-02T16:36:46.266Z,60.92
2023-03-02T16:39:15.376Z,60.74
2023-03-02T16:41:44.492Z,60.61
2023-03-02T16:44:16.294Z,60.61
2023-03-02T16:46:49.439Z,60.59
2023-03-02T16:49:20.754Z,60.70
2023-03-02T16:51:48.970Z,60.60
2023-03-02T16:54:19.571Z,60.61
2023-03-02T16:56:49.720Z,60.60
2023-03-02T16:59:20.767Z,60.89
2023-03-02T17:01:51.194Z,60.80
2023-03-02T17:04:33.751Z,60.97
2023-03-02T17:07:01.777Z,60.91
2023-03-02T17:09:34.554Z,60.78
2023-03-02T17:12:03.410Z,60.92
2023-03-02T17:14:31.610Z,60.77
2023-03-02T17:17:04.261Z,60.94
2023-03-02T17:19:34.699Z,60.67
2023-03-02T17:22:04.121Z,60.89
2023-03-02T17:24:33.211Z,60.95
2023-03-02T17:27:01.001Z,61.00
2023-03-02T17:29:28.925Z,61.04
2023-03-02T17:31:56.776Z,61.03
2023-03-02T17:34:28.756Z,61.08
2023-03-02T17:36:57.228Z,61.07
2023-03-02T17:39:25.853Z,61.34
2023-03-02T17:41:56.290Z,61.04
2023-03-02T17:44:24.360Z,60.92
2023-03-02T17:46:52.762Z,60.93
2023-03-02T17:49:20.662Z,61.01
2023-03-02T17:51:48.779Z,61.18
2023-03-02T17:54:17.518Z,61.29
2023-03-02T17:56:45.341Z,61.30
2023-03-02T17:59:14.844Z,61.23
2023-03-02T18:01:44.116Z,61.28
2023-03-02T18:04:12.196Z,61.28
2023-03-02T18:06:40.698Z,61.37
2023-03-02T18:09:11.515Z,61.44
2023-03-02T18:11:46.029Z,61.27
2023-03-02T18:14:19.926Z,61.44
2023-03-02T18:16:48.705Z,61.52
2023-03-02T18:19:16.924Z,61.60
2023-03-02T18:21:45.482Z,61.50
2023-03-02T18:24:13.280Z,61.51
2023-03-02T18:26:41.715Z,61.67
2023-03-02T18:29:09.504Z,61.70
2023-03-02T18:31:37.535Z,61.67
2023-03-02T18:34:08.968Z,61.57
2023-03-02T18:36:37.352Z,61.56
2023-03-02T18:39:05.311Z,61.64
2023-03-02T18:41:33.125Z,61.74
2023-03-02T18:44:01.447Z,61.80
2023-03-02T18:46:34.751Z,61.79
2023-03-02T18:49:04.504Z,61.84
2023-03-02T18:51:32.900Z,61.95
2023-03-02T18:54:00.980Z,61.92
2023-03-02T18:56:28.753Z,61.89
2023-03-02T18:58:56.601Z,61.97
2023-03-02T19:01:25.001Z,62.07
2023-03-02T19:03:56.886Z,62.08
2023-03-02T19:06:25.006Z,62.12
2023-03-02T19:08:52.780Z,62.03
2023-03-02T19:11:20.649Z,62.12
2023-03-02T19:13:48.468Z,62.26
2023-03-02T19:16:18.455Z,62.29
2023-03-02T19:18:47.150Z,62.27
2023-03-02T19:21:14.911Z,62.25
2023-03-02T19:23:44.497Z,62.40
2023-03-02T19:26:13.505Z,62.39
2023-03-02T19:28:41.847Z,62.43
2023-03-02T19:31:12.397Z,62.41
2023-03-02T19:33:42.297Z,62.36
2023-03-02T19:36:10.138Z,62.34
2023-03-02T19:38:41.545Z,62.37
2023-03-02T19:41:13.243Z,62.57
2023-03-02T19:43:42.862Z,62.47
2023-03-02T19:46:11.337Z,62.33
2023-03-02T19:48:39.919Z,62.42
2023-03-02T19:51:09.247Z,62.46
2023-03-02T19:53:38.518Z,62.60
2023-03-02T19:56:12.942Z,62.43
2023-03-02T19:58:49.969Z,62.50
2023-03-02T20:01:24.813Z,62.54
2023-03-02T20:03:53.242Z,62.51
2023-03-02T20:06:23.206Z,62.49
2023-03-02T20:08:52.219Z,62.84
2023-03-02T20:11:20.001Z,62.72
2023-03-02T20:13:48.330Z,62.64
2023-03-02T20:16:16.846Z,62.83
2023-03-02T20:18:45.683Z,62.97
2023-03-02T20:21:13.458Z,62.94
2023-03-02T20:23:41.902Z,63.02
2023-03-02T20:26:13.671Z,62.89
2023-03-02T20:28:41.406Z,63.07
2023-03-02T20:31:12.968Z,63.14
2023-03-02T20:33:47.745Z,62.95
2023-03-02T20:36:21.246Z,63.17
2023-03-02T20:39:00.456Z,63.08
2023-03-02T20:41:28.656Z,63.03
2023-03-02T20:43:57.019Z,63.16
2023-03-02T20:46:31.583Z,63.18
2023-03-02T20:49:00.140Z,63.23
2023-03-02T20:51:28.607Z,63.32
2023-03-02T20:53:56.847Z,63.29
2023-03-02T20:56:25.201Z,63.27
2023-03-02T20:58:53.664Z,63.36
2023-03-02T21:01:23.768Z,63.20
2023-03-02T21:03:52.408Z,63.31
2023-03-02T21:06:20.248Z,63.42
2023-03-02T21:08:48.741Z,63.37
2023-03-02T21:11:20.881Z,63.24
2023-03-02T21:13:49.547Z,63.41
2023-03-02T21:16:21.942Z,63.47
2023-03-02T21:18:50.906Z,63.46
2023-03-02T21:21:20.252Z,63.34
2023-03-02T21:23:51.438Z,63.48
2023-03-02T21:26:19.425Z,63.38
2023-03-02T21:28:48.024Z,63.65
2023-03-02T21:31:18.289Z,63.57
2023-03-02T21:33:46.275Z,63.66
2023-03-02T21:36:22.796Z,63.39
2023-03-02T21:38:52.390Z,63.49
2023-03-02T21:41:21.481Z,63.57
2023-03-02T21:43:49.715Z,63.60
2023-03-02T21:46:22.023Z,63.61
2023-03-02T21:48:51.387Z,63.39
2023-03-02T21:51:20.169Z,63.49
2023-03-02T21:53:48.478Z,63.64
2023-03-02T21:56:22.023Z,63.48
2023-03-02T21:58:51.532Z,63.69
2023-03-02T22:01:19.860Z,63.72
2023-03-02T22:03:48.353Z,63.78
2023-03-02T22:06:26.066Z,63.97
2023-03-02T22:08:55.695Z,63.92
2023-03-02T22:11:29.960Z,63.58
2023-03-02T22:14:00.453Z,63.85
2023-03-02T22:16:35.195Z,63.79
2023-03-02T22:19:20.329Z,63.88
2023-03-02T22:21:49.589Z,63.97
2023-03-02T22:24:23.959Z,64.09
2023-03-02T22:27:19.641Z,63.94
2023-03-02T22:29:50.260Z,64.19
2023-03-02T22:32:24.197Z,64.03
2023-03-02T22:34:54.496Z,64.01
2023-03-02T22:37:40.945Z,64.23
2023-03-02T22:40:30.989Z,64.12
2023-03-02T22:43:11.757Z,64.09
2023-03-02T22:45:41.306Z,63.96
2023-03-02T22:48:18.239Z,64.22
2023-03-02T22:50:49.730Z,64.40
2023-03-02T22:53:25.423Z,64.20
2023-03-02T22:56:04.303Z,64.18
2023-03-02T22:58:42.708Z,64.07
2023-03-02T23:01:27.685Z,64.33
2023-03-02T23:04:13.963Z,64.39
2023-03-02T23:06:46.391Z,64.42
2023-03-02T23:09:17.548Z,64.26
2023-03-02T23:11:45.784Z,64.12
2023-03-02T23:14:24.892Z,64.37
2023-03-02T23:17:00.212Z,64.49
2023-03-02T23:19:31.193Z,64.13
2023-03-02T23:21:59.427Z,64.30
2023-03-02T23:24:27.721Z,64.25
2023-03-02T23:26:55.567Z,64.44
2023-03-02T23:29:23.382Z,64.51
2023-03-02T23:31:51.212Z,64.33
2023-03-02T23:34:19.111Z,64.52
2023-03-02T23:36:46.909Z,64.61
2023-03-02T23:39:15.840Z,64.41
2023-03-02T23:41:43.854Z,64.57
2023-03-02T23:44:11.650Z,64.70
2023-03-02T23:46:39.399Z,64.78
2023-03-02T23:49:07.245Z,64.80
2023-03-02T23:51:35.179Z,64.35
2023-03-02T23:54:04.815Z,64.63
2023-03-02T23:56:32.880Z,64.50
2023-03-02T23:59:00.862Z,64.76
